sensor_id;sensor_type;location;lat;lon;timestamp;pressure;altitude;pressure_sealevel;temperature;humidity
50057;BME280;36875;49.468;11.200;2023-01-08T00:00:27;97477.28;;;24.17;39.93
50057;BME280;36875;49.468;11.200;2023-01-08T00:02:53;97453.50;;;24.09;39.98
50057;BME280;36875;49.468;11.200;2023-01-08T00:05:18;97454.41;;;24.00;39.89
50057;BME280;36875;49.468;11.200;2023-01-08T00:07:44;97461.94;;;24.16;39.75
50057;BME280;36875;49.468;11.200;2023-01-08T00:10:09;97459.63;;;24.18;39.60
50057;BME280;36875;49.468;11.200;2023-01-08T00:12:35;97444.13;;;24.25;39.72
50057;BME280;36875;49.468;11.200;2023-01-08T00:15:00;97440.41;;;24.18;39.68
50057;BME280;36875;49.468;11.200;2023-01-08T00:17:27;97446.34;;;24.20;39.81
50057;BME280;36875;49.468;11.200;2023-01-08T00:19:53;97447.13;;;24.20;39.93
50057;BME280;36875;49.468;11.200;2023-01-08T00:22:18;97443.84;;;24.15;39.59
50057;BME280;36875;49.468;11.200;2023-01-08T00:24:44;97428.06;;;24.12;39.96
50057;BME280;36875;49.468;11.200;2023-01-08T00:27:09;97433.75;;;24.19;39.56
50057;BME280;36875;49.468;11.200;2023-01-08T00:29:35;97419.28;;;24.22;39.61
50057;BME280;36875;49.468;11.200;2023-01-08T00:32:02;97421.69;;;24.23;39.75
50057;BME280;36875;49.468;11.200;2023-01-08T00:34:28;97420.47;;;24.21;39.33
50057;BME280;36875;49.468;11.200;2023-01-08T00:36:54;97425.97;;;24.21;39.65
50057;BME280;36875;49.468;11.200;2023-01-08T00:39:20;97428.63;;;24.33;39.68
50057;BME280;36875;49.468;11.200;2023-01-08T00:41:45;97429.16;;;24.23;39.67
50057;BME280;36875;49.468;11.200;2023-01-08T00:44:11;97423.56;;;24.19;39.52
50057;BME280;36875;49.468;11.200;2023-01-08T00:46:36;97419.03;;;24.27;39.83
50057;BME280;36875;49.468;11.200;2023-01-08T00:49:02;97409.75;;;24.32;39.17
50057;BME280;36875;49.468;11.200;2023-01-08T00:51:29;97417.63;;;24.33;39.11
50057;BME280;36875;49.468;11.200;2023-01-08T00:53:54;97417.16;;;24.15;39.71
50057;BME280;36875;49.468;11.200;2023-01-08T00:56:20;97428.97;;;24.16;39.79
50057;BME280;36875;49.468;11.200;2023-01-08T00:58:45;97418.09;;;24.07;39.82
50057;BME280;36875;49.468;11.200;2023-01-08T01:01:12;97416.88;;;24.04;39.75
50057;BME280;36875;49.468;11.200;2023-01-08T01:03:38;97409.66;;;24.00;39.79
50057;BME280;36875;49.468;11.200;2023-01-08T01:06:04;97406.22;;;24.03;39.58
50057;BME280;36875;49.468;11.200;2023-01-08T01:08:31;97414.59;;;23.94;39.91
50057;BME280;36875;49.468;11.200;2023-01-08T01:10:57;97405.81;;;23.89;39.93
50057;BME280;36875;49.468;11.200;2023-01-08T01:13:22;97395.66;;;23.77;40.13
50057;BME280;36875;49.468;11.200;2023-01-08T01:15:55;97394.97;;;23.80;39.94
50057;BME280;36875;49.468;11.200;2023-01-08T01:18:21;97406.78;;;23.80;39.94
50057;BME280;36875;49.468;11.200;2023-01-08T01:20:46;97397.47;;;23.73;40.26
50057;BME280;36875;49.468;11.200;2023-01-08T01:23:12;97404.03;;;23.68;40.38
50057;BME280;36875;49.468;11.200;2023-01-08T01:25:39;97404.03;;;23.68;40.03
50057;BME280;36875;49.468;11.200;2023-01-08T01:28:04;97418.09;;;23.66;39.98
50057;BME280;36875;49.468;11.200;2023-01-08T01:30:30;97421.09;;;23.61;40.09
50057;BME280;36875;49.468;11.200;2023-01-08T01:32:55;97423.03;;;23.61;39.78
50057;BME280;36875;49.468;11.200;2023-01-08T01:35:21;97408.28;;;23.53;40.25
50057;BME280;36875;49.468;11.200;2023-01-08T01:37:46;97409.44;;;23.52;40.42
50057;BME280;36875;49.468;11.200;2023-01-08T01:40:12;97406.56;;;23.48;40.29
50057;BME280;36875;49.468;11.200;2023-01-08T01:42:38;97388.88;;;23.34;40.48
50057;BME280;36875;49.468;11.200;2023-01-08T01:45:13;97393.47;;;23.29;40.78
50057;BME280;36875;49.468;11.200;2023-01-08T01:47:40;97410.84;;;23.34;40.58
50057;BME280;36875;49.468;11.200;2023-01-08T01:50:10;97401.69;;;23.29;40.63
50057;BME280;36875;49.468;11.200;2023-01-08T01:52:41;97394.13;;;23.26;40.59
50057;BME280;36875;49.468;11.200;2023-01-08T01:55:09;97376.53;;;23.15;40.79
50057;BME280;36875;49.468;11.200;2023-01-08T01:57:38;97386.41;;;23.16;40.72
50057;BME280;36875;49.468;11.200;2023-01-08T02:00:06;97397.81;;;23.18;40.82
50057;BME280;36875;49.468;11.200;2023-01-08T02:02:32;97393.69;;;23.12;41.00
50057;BME280;36875;49.468;11.200;2023-01-08T02:04:58;97381.47;;;23.09;41.05
50057;BME280;36875;49.468;11.200;2023-01-08T02:07:29;97388.00;;;23.05;40.95
50057;BME280;36875;49.468;11.200;2023-01-08T02:10:05;97392.19;;;23.02;41.04
50057;BME280;36875;49.468;11.200;2023-01-08T02:12:35;97391.63;;;22.97;41.12
50057;BME280;36875;49.468;11.200;2023-01-08T02:15:10;97390.84;;;22.96;41.17
50057;BME280;36875;49.468;11.200;2023-01-08T02:17:44;97390.72;;;22.93;41.04
50057;BME280;36875;49.468;11.200;2023-01-08T02:20:17;97372.53;;;22.88;41.05
50057;BME280;36875;49.468;11.200;2023-01-08T02:22:50;97360.66;;;22.84;41.31
50057;BME280;36875;49.468;11.200;2023-01-08T02:25:29;97356.66;;;22.81;41.24
50057;BME280;36875;49.468;11.200;2023-01-08T02:27:59;97343.38;;;22.71;41.33
50057;BME280;36875;49.468;11.200;2023-01-08T02:30:26;97355.28;;;22.75;41.46
50057;BME280;36875;49.468;11.200;2023-01-08T02:32:52;97355.16;;;22.71;41.48
50057;BME280;36875;49.468;11.200;2023-01-08T02:35:18;97341.78;;;22.58;41.81
50057;BME280;36875;49.468;11.200;2023-01-08T02:37:43;97361.69;;;22.67;41.38
50057;BME280;36875;49.468;11.200;2023-01-08T02:40:15;97349.69;;;22.59;41.38
50057;BME280;36875;49.468;11.200;2023-01-08T02:42:45;97348.53;;;22.60;41.16
50057;BME280;36875;49.468;11.200;2023-01-08T02:45:23;97340.88;;;22.54;41.68
50057;BME280;36875;49.468;11.200;2023-01-08T02:47:53;97348.28;;;22.53;41.59
50057;BME280;36875;49.468;11.200;2023-01-08T02:50:23;97332.84;;;22.36;41.41
50057;BME280;36875;49.468;11.200;2023-01-08T02:52:55;97352.06;;;22.48;41.56
50057;BME280;36875;49.468;11.200;2023-01-08T02:55:25;97347.59;;;22.44;41.64
50057;BME280;36875;49.468;11.200;2023-01-08T02:57:52;97347.47;;;22.40;41.78
50057;BME280;36875;49.468;11.200;2023-01-08T03:00:19;97344.28;;;22.38;41.86
50057;BME280;36875;49.468;11.200;2023-01-08T03:02:46;97344.97;;;22.35;41.89
50057;BME280;36875;49.468;11.200;2023-01-08T03:05:18;97340.50;;;22.30;41.76
50057;BME280;36875;49.468;11.200;2023-01-08T03:07:47;97338.56;;;22.31;41.83
50057;BME280;36875;49.468;11.200;2023-01-08T03:10:13;97329.72;;;22.25;41.93
50057;BME280;36875;49.468;11.200;2023-01-08T03:12:44;97334.75;;;22.23;41.89
50057;BME280;36875;49.468;11.200;2023-01-08T03:15:18;97347.53;;;22.19;41.84
50057;BME280;36875;49.468;11.200;2023-01-08T03:17:49;97344.34;;;22.17;42.01
50057;BME280;36875;49.468;11.200;2023-01-08T03:20:19;97347.75;;;22.14;41.98
50057;BME280;36875;49.468;11.200;2023-01-08T03:25:14;97332.66;;;22.08;42.02
50057;BME280;36875;49.468;11.200;2023-01-08T03:27:43;97334.13;;;22.05;42.03
50057;BME280;36875;49.468;11.200;2023-01-08T03:30:11;97321.47;;;22.01;41.89
50057;BME280;36875;49.468;11.200;2023-01-08T03:32:38;97329.69;;;22.01;42.03
50057;BME280;36875;49.468;11.200;2023-01-08T03:35:09;97321.34;;;21.97;41.98
50057;BME280;36875;49.468;11.200;2023-01-08T03:37:38;97313.78;;;21.94;42.02
50057;BME280;36875;49.468;11.200;2023-01-08T03:40:09;97314.94;;;21.93;42.09
50057;BME280;36875;49.468;11.200;2023-01-08T03:42:37;97307.38;;;21.90;42.09
50057;BME280;36875;49.468;11.200;2023-01-08T03:45:03;97295.50;;;21.86;42.06
50057;BME280;36875;49.468;11.200;2023-01-08T03:47:30;97294.59;;;21.82;42.08
50057;BME280;36875;49.468;11.200;2023-01-08T03:49:59;97294.09;;;21.80;42.32
50057;BME280;36875;49.468;11.200;2023-01-08T03:52:29;97283.84;;;21.77;42.22
50057;BME280;36875;49.468;11.200;2023-01-08T03:54:55;97279.81;;;21.74;42.05
50057;BME280;36875;49.468;11.200;2023-01-08T03:57:21;97274.69;;;21.72;42.41
50057;BME280;36875;49.468;11.200;2023-01-08T03:59:47;97274.91;;;21.67;42.26
50057;BME280;36875;49.468;11.200;2023-01-08T04:02:13;97257.91;;;21.62;42.52
50057;BME280;36875;49.468;11.200;2023-01-08T04:04:38;97260.28;;;21.63;42.51
50057;BME280;36875;49.468;11.200;2023-01-08T04:07:04;97243.50;;;21.52;42.22
50057;BME280;36875;49.468;11.200;2023-01-08T04:09:31;97251.16;;;21.59;42.49
50057;BME280;36875;49.468;11.200;2023-01-08T04:11:57;97247.16;;;21.56;42.58
50057;BME280;36875;49.468;11.200;2023-01-08T04:14:22;97252.19;;;21.54;42.38
50057;BME280;36875;49.468;11.200;2023-01-08T04:16:48;97247.38;;;21.51;42.43
50057;BME280;36875;49.468;11.200;2023-01-08T04:19:13;97239.81;;;21.48;42.53
50057;BME280;36875;49.468;11.200;2023-01-08T04:21:39;97229.84;;;21.44;42.71
50057;BME280;36875;49.468;11.200;2023-01-08T04:24:05;97225.84;;;21.41;42.50
50057;BME280;36875;49.468;11.200;2023-01-08T04:26:32;97237.16;;;21.40;42.36
50057;BME280;36875;49.468;11.200;2023-01-08T04:28:57;97236.66;;;21.37;42.44
50057;BME280;36875;49.468;11.200;2023-01-08T04:31:23;97253.78;;;21.34;42.54
50057;BME280;36875;49.468;11.200;2023-01-08T04:33:48;97231.22;;;21.16;42.38
50057;BME280;36875;49.468;11.200;2023-01-08T04:36:14;97264.25;;;21.32;42.75
50057;BME280;36875;49.468;11.200;2023-01-08T04:38:40;97269.16;;;21.27;42.56
50057;BME280;36875;49.468;11.200;2023-01-08T04:41:05;97265.13;;;21.24;42.86
50057;BME280;36875;49.468;11.200;2023-01-08T04:43:32;97263.88;;;21.22;42.69
50057;BME280;36875;49.468;11.200;2023-01-08T04:45:58;97258.25;;;21.18;42.92
50057;BME280;36875;49.468;11.200;2023-01-08T04:48:24;97255.84;;;21.16;42.84
50057;BME280;36875;49.468;11.200;2023-01-08T04:50:50;97263.59;;;21.14;42.73
50057;BME280;36875;49.468;11.200;2023-01-08T04:53:15;97261.53;;;21.11;42.71
50057;BME280;36875;49.468;11.200;2023-01-08T04:55:41;97259.13;;;21.10;42.96
50057;BME280;36875;49.468;11.200;2023-01-08T04:58:06;97256.59;;;21.05;42.83
50057;BME280;36875;49.468;11.200;2023-01-08T05:00:33;97255.00;;;21.04;42.85
50057;BME280;36875;49.468;11.200;2023-01-08T05:02:59;97251.78;;;21.02;43.03
50057;BME280;36875;49.468;11.200;2023-01-08T05:05:24;97244.25;;;20.98;43.12
50057;BME280;36875;49.468;11.200;2023-01-08T05:07:50;97237.53;;;20.96;43.02
50057;BME280;36875;49.468;11.200;2023-01-08T05:10:16;97240.13;;;20.92;42.89
50057;BME280;36875;49.468;11.200;2023-01-08T05:12:41;97244.78;;;20.92;43.02
50057;BME280;36875;49.468;11.200;2023-01-08T05:15:08;97243.50;;;20.89;42.92
50057;BME280;36875;49.468;11.200;2023-01-08T05:17:35;97234.84;;;20.87;42.94
50057;BME280;36875;49.468;11.200;2023-01-08T05:20:00;97228.44;;;20.83;43.07
50057;BME280;36875;49.468;11.200;2023-01-08T05:22:26;97231.19;;;20.83;42.80
50057;BME280;36875;49.468;11.200;2023-01-08T05:24:51;97226.38;;;20.80;43.27
50057;BME280;36875;49.468;11.200;2023-01-08T05:27:17;97216.13;;;20.77;42.92
50057;BME280;36875;49.468;11.200;2023-01-08T05:29:42;97221.09;;;20.75;43.05
50057;BME280;36875;49.468;11.200;2023-01-08T05:32:13;97219.03;;;20.72;43.19
50057;BME280;36875;49.468;11.200;2023-01-08T05:34:40;97222.91;;;20.71;43.36
50057;BME280;36875;49.468;11.200;2023-01-08T05:37:05;97224.38;;;20.68;43.16
50057;BME280;36875;49.468;11.200;2023-01-08T05:39:30;97223.91;;;20.66;43.24
50057;BME280;36875;49.468;11.200;2023-01-08T05:41:56;97223.09;;;20.66;43.42
50057;BME280;36875;49.468;11.200;2023-01-08T05:44:21;97221.03;;;20.63;43.35
50057;BME280;36875;49.468;11.200;2023-01-08T05:46:47;97226.03;;;20.60;43.32
50057;BME280;36875;49.468;11.200;2023-01-08T05:49:13;97221.97;;;20.58;43.28
50057;BME280;36875;49.468;11.200;2023-01-08T05:51:40;97216.06;;;20.56;43.09
50057;BME280;36875;49.468;11.200;2023-01-08T05:54:06;97214.78;;;20.53;43.22
50057;BME280;36875;49.468;11.200;2023-01-08T05:56:32;97219.28;;;20.49;43.28
50057;BME280;36875;49.468;11.200;2023-01-08T05:58:58;97217.38;;;20.50;43.30
50057;BME280;36875;49.468;11.200;2023-01-08T06:01:23;97221.56;;;20.47;43.54
50057;BME280;36875;49.468;11.200;2023-01-08T06:03:49;97221.41;;;20.44;43.17
50057;BME280;36875;49.468;11.200;2023-01-08T06:06:14;97221.78;;;20.42;43.45
50057;BME280;36875;49.468;11.200;2023-01-08T06:08:42;97224.84;;;20.40;43.35
50057;BME280;36875;49.468;11.200;2023-01-08T06:11:07;97226.75;;;20.40;43.17
50057;BME280;36875;49.468;11.200;2023-01-08T06:13:34;97218.09;;;20.38;43.26
50057;BME280;36875;49.468;11.200;2023-01-08T06:16:00;97219.56;;;20.35;43.45
50057;BME280;36875;49.468;11.200;2023-01-08T06:18:26;97210.44;;;20.31;43.30
50057;BME280;36875;49.468;11.200;2023-01-08T06:20:52;97201.75;;;20.29;43.63
50057;BME280;36875;49.468;11.200;2023-01-08T06:23:17;97198.53;;;20.27;43.65
50057;BME280;36875;49.468;11.200;2023-01-08T06:25:50;97205.94;;;20.27;43.38
50057;BME280;36875;49.468;11.200;2023-01-08T06:28:16;97189.06;;;20.25;43.68
50057;BME280;36875;49.468;11.200;2023-01-08T06:30:41;97183.94;;;20.23;43.60
50057;BME280;36875;49.468;11.200;2023-01-08T06:33:07;97188.47;;;20.19;43.71
50057;BME280;36875;49.468;11.200;2023-01-08T06:35:32;97183.66;;;20.16;43.65
50057;BME280;36875;49.468;11.200;2023-01-08T06:37:58;97189.13;;;20.16;43.41
50057;BME280;36875;49.468;11.200;2023-01-08T06:40:23;97196.19;;;20.17;43.51
50057;BME280;36875;49.468;11.200;2023-01-08T06:42:50;97198.78;;;20.13;43.43
50057;BME280;36875;49.468;11.200;2023-01-08T06:45:16;97200.72;;;20.13;43.54
50057;BME280;36875;49.468;11.200;2023-01-08T06:47:42;97196.38;;;20.12;43.60
50057;BME280;36875;49.468;11.200;2023-01-08T06:50:07;97199.75;;;20.09;43.51
50057;BME280;36875;49.468;11.200;2023-01-08T06:52:33;97200.09;;;20.07;43.39
50057;BME280;36875;49.468;11.200;2023-01-08T06:54:59;97196.88;;;20.05;43.50
50057;BME280;36875;49.468;11.200;2023-01-08T06:57:24;97189.06;;;19.95;43.95
50057;BME280;36875;49.468;11.200;2023-01-08T06:59:51;97206.84;;;20.01;43.50
50057;BME280;36875;49.468;11.200;2023-01-08T07:02:17;97201.72;;;19.99;43.70
50057;BME280;36875;49.468;11.200;2023-01-08T07:04:43;97193.88;;;19.98;43.66
50057;BME280;36875;49.468;11.200;2023-01-08T07:07:10;97192.28;;;19.97;43.45
50057;BME280;36875;49.468;11.200;2023-01-08T07:09:36;97205.44;;;19.95;43.59
50057;BME280;36875;49.468;11.200;2023-01-08T07:12:01;97208.50;;;19.93;43.87
50057;BME280;36875;49.468;11.200;2023-01-08T07:14:27;97217.81;;;19.92;43.69
50057;BME280;36875;49.468;11.200;2023-01-08T07:16:56;97220.06;;;19.90;43.58
50057;BME280;36875;49.468;11.200;2023-01-08T07:19:22;97207.56;;;19.89;43.62
50057;BME280;36875;49.468;11.200;2023-01-08T07:21:47;97191.38;;;19.75;43.90
50057;BME280;36875;49.468;11.200;2023-01-08T07:24:13;97211.72;;;19.87;43.61
50057;BME280;36875;49.468;11.200;2023-01-08T07:26:38;97204.22;;;19.83;43.64
50057;BME280;36875;49.468;11.200;2023-01-08T07:29:04;97205.34;;;19.82;43.49
50057;BME280;36875;49.468;11.200;2023-01-08T07:31:31;97189.94;;;19.69;43.81
50057;BME280;36875;49.468;11.200;2023-01-08T07:33:58;97151.97;;;19.47;44.02
50057;BME280;36875;49.468;11.200;2023-01-08T07:36:23;97198.47;;;19.76;43.91
50057;BME280;36875;49.468;11.200;2023-01-08T07:38:49;97196.84;;;19.75;43.67
50057;BME280;36875;49.468;11.200;2023-01-08T07:41:15;97199.09;;;19.73;44.16
50057;BME280;36875;49.468;11.200;2023-01-08T07:43:41;97211.13;;;19.72;43.67
50057;BME280;36875;49.468;11.200;2023-01-08T07:46:06;97199.72;;;19.70;44.05
50057;BME280;36875;49.468;11.200;2023-01-08T07:48:32;97207.09;;;19.70;44.03
50057;BME280;36875;49.468;11.200;2023-01-08T07:51:01;97205.84;;;19.67;44.10
50057;BME280;36875;49.468;11.200;2023-01-08T07:53:27;97203.13;;;19.67;43.68
50057;BME280;36875;49.468;11.200;2023-01-08T07:55:58;97212.75;;;19.64;44.02
50057;BME280;36875;49.468;11.200;2023-01-08T07:58:23;97206.34;;;19.60;44.17
50057;BME280;36875;49.468;11.200;2023-01-08T08:00:49;97202.50;;;19.61;43.83
50057;BME280;36875;49.468;11.200;2023-01-08T08:03:14;97212.59;;;19.61;44.26
50057;BME280;36875;49.468;11.200;2023-01-08T08:05:39;97209.84;;;19.61;44.23
50057;BME280;36875;49.468;11.200;2023-01-08T08:08:10;97217.56;;;19.59;44.33
50057;BME280;36875;49.468;11.200;2023-01-08T08:10:36;97218.72;;;19.58;44.31
50057;BME280;36875;49.468;11.200;2023-01-08T08:13:02;97224.97;;;19.58;44.52
50057;BME280;36875;49.468;11.200;2023-01-08T08:15:28;97218.88;;;19.53;44.31
50057;BME280;36875;49.468;11.200;2023-01-08T08:17:53;97211.50;;;19.53;44.54
50057;BME280;36875;49.468;11.200;2023-01-08T08:20:19;97212.94;;;19.51;44.96
50057;BME280;36875;49.468;11.200;2023-01-08T08:22:44;97220.00;;;19.52;44.89
50057;BME280;36875;49.468;11.200;2023-01-08T08:25:11;97160.66;;;19.22;44.94
50057;BME280;36875;49.468;11.200;2023-01-08T08:27:39;97222.41;;;19.53;45.02
50057;BME280;36875;49.468;11.200;2023-01-08T08:30:06;97224.81;;;19.55;45.09
50057;BME280;36875;49.468;11.200;2023-01-08T08:32:32;97222.25;;;19.58;45.11
50057;BME280;36875;49.468;11.200;2023-01-08T08:34:58;97217.56;;;19.59;45.40
50057;BME280;36875;49.468;11.200;2023-01-08T08:37:24;97210.31;;;19.72;45.81
50057;BME280;36875;49.468;11.200;2023-01-08T08:39:49;97220.59;;;19.83;45.92
50057;BME280;36875;49.468;11.200;2023-01-08T08:42:16;97217.66;;;19.89;45.96
50057;BME280;36875;49.468;11.200;2023-01-08T08:44:42;97221.19;;;19.98;46.49
50057;BME280;36875;49.468;11.200;2023-01-08T08:47:07;97192.91;;;19.94;46.15
50057;BME280;36875;49.468;11.200;2023-01-08T08:49:33;97204.59;;;20.03;46.99
50057;BME280;36875;49.468;11.200;2023-01-08T08:52:00;97206.69;;;20.06;46.86
50057;BME280;36875;49.468;11.200;2023-01-08T08:54:26;97212.28;;;20.10;47.35
50057;BME280;36875;49.468;11.200;2023-01-08T08:56:51;97206.78;;;20.18;47.35
50057;BME280;36875;49.468;11.200;2023-01-08T08:59:18;97210.94;;;20.25;47.60
50057;BME280;36875;49.468;11.200;2023-01-08T09:01:44;97209.28;;;20.32;47.42
50057;BME280;36875;49.468;11.200;2023-01-08T09:04:09;97197.44;;;20.49;47.32
50057;BME280;36875;49.468;11.200;2023-01-08T09:06:35;97190.19;;;20.53;47.68
50057;BME280;36875;49.468;11.200;2023-01-08T09:09:00;97169.03;;;20.41;47.95
50057;BME280;36875;49.468;11.200;2023-01-08T09:11:26;97194.16;;;20.65;47.91
50057;BME280;36875;49.468;11.200;2023-01-08T09:13:51;97197.63;;;20.74;47.64
50057;BME280;36875;49.468;11.200;2023-01-08T09:16:18;97205.44;;;21.05;46.41
50057;BME280;36875;49.468;11.200;2023-01-08T09:18:44;97190.38;;;20.99;46.59
50057;BME280;36875;49.468;11.200;2023-01-08T09:21:09;97199.97;;;21.38;46.20
50057;BME280;36875;49.468;11.200;2023-01-08T09:23:35;97187.81;;;21.48;45.83
50057;BME280;36875;49.468;11.200;2023-01-08T09:26:01;97202.34;;;21.73;45.88
50057;BME280;36875;49.468;11.200;2023-01-08T09:28:28;97188.66;;;21.73;45.96
50057;BME280;36875;49.468;11.200;2023-01-08T09:30:53;97193.59;;;22.05;45.66
50057;BME280;36875;49.468;11.200;2023-01-08T09:33:22;97193.38;;;22.22;45.44
50057;BME280;36875;49.468;11.200;2023-01-08T09:35:47;97189.19;;;22.37;45.29
50057;BME280;36875;49.468;11.200;2023-01-08T09:38:13;97200.72;;;22.30;45.58
50057;BME280;36875;49.468;11.200;2023-01-08T09:40:42;97182.75;;;22.45;45.27
50057;BME280;36875;49.468;11.200;2023-01-08T09:43:13;97211.63;;;22.55;45.41
50057;BME280;36875;49.468;11.200;2023-01-08T09:45:41;97212.69;;;22.63;44.95
50057;BME280;36875;49.468;11.200;2023-01-08T09:48:12;97207.44;;;22.33;45.06
50057;BME280;36875;49.468;11.200;2023-01-08T09:50:39;97206.38;;;22.25;44.80
50057;BME280;36875;49.468;11.200;2023-01-08T09:53:09;97194.44;;;22.30;44.36
50057;BME280;36875;49.468;11.200;2023-01-08T09:55:37;97201.03;;;22.29;43.94
50057;BME280;36875;49.468;11.200;2023-01-08T09:58:05;97202.63;;;22.18;43.51
50057;BME280;36875;49.468;11.200;2023-01-08T10:00:36;97187.31;;;22.04;43.44
50057;BME280;36875;49.468;11.200;2023-01-08T10:03:02;97193.81;;;22.12;43.48
50057;BME280;36875;49.468;11.200;2023-01-08T10:05:29;97177.94;;;22.05;43.10
50057;BME280;36875;49.468;11.200;2023-01-08T10:07:56;97177.72;;;22.10;43.04
50057;BME280;36875;49.468;11.200;2023-01-08T10:10:25;97188.78;;;22.02;42.99
50057;BME280;36875;49.468;11.200;2023-01-08T10:12:52;97180.81;;;21.97;43.14
50057;BME280;36875;49.468;11.200;2023-01-08T10:15:20;97184.25;;;22.06;43.22
50057;BME280;36875;49.468;11.200;2023-01-08T10:17:49;97173.84;;;22.11;43.00
50057;BME280;36875;49.468;11.200;2023-01-08T10:20:18;97173.28;;;22.06;42.70
50057;BME280;36875;49.468;11.200;2023-01-08T10:22:45;97180.22;;;22.03;42.27
50057;BME280;36875;49.468;11.200;2023-01-08T10:25:18;97172.84;;;22.04;41.94
50057;BME280;36875;49.468;11.200;2023-01-08T10:27:46;97177.16;;;22.05;41.14
50057;BME280;36875;49.468;11.200;2023-01-08T10:30:15;97177.72;;;21.98;40.88
50057;BME280;36875;49.468;11.200;2023-01-08T10:32:45;97156.72;;;21.90;40.67
50057;BME280;36875;49.468;11.200;2023-01-08T10:35:15;97133.00;;;21.82;40.63
50057;BME280;36875;49.468;11.200;2023-01-08T10:37:42;97142.47;;;21.97;40.67
50057;BME280;36875;49.468;11.200;2023-01-08T10:40:21;97134.34;;;21.88;40.98
50057;BME280;36875;49.468;11.200;2023-01-08T10:42:48;97134.81;;;22.02;40.99
50057;BME280;36875;49.468;11.200;2023-01-08T10:45:17;97132.75;;;21.99;41.13
50057;BME280;36875;49.468;11.200;2023-01-08T10:47:46;97140.75;;;22.04;41.14
50057;BME280;36875;49.468;11.200;2023-01-08T10:50:20;97133.31;;;22.05;41.24
50057;BME280;36875;49.468;11.200;2023-01-08T10:52:52;97127.59;;;21.85;41.65
50057;BME280;36875;49.468;11.200;2023-01-08T10:55:27;97138.00;;;21.92;41.60
50057;BME280;36875;49.468;11.200;2023-01-08T10:57:55;97112.09;;;21.77;41.92
50057;BME280;36875;49.468;11.200;2023-01-08T11:00:23;97133.56;;;21.87;41.62
50057;BME280;36875;49.468;11.200;2023-01-08T11:02:49;97136.31;;;21.87;41.93
50057;BME280;36875;49.468;11.200;2023-01-08T11:05:15;97119.97;;;21.79;41.76
50057;BME280;36875;49.468;11.200;2023-01-08T11:07:40;97121.25;;;21.69;42.17
50057;BME280;36875;49.468;11.200;2023-01-08T11:10:19;97130.25;;;21.69;42.24
50057;BME280;36875;49.468;11.200;2023-01-08T11:12:53;97121.25;;;21.69;42.59
50057;BME280;36875;49.468;11.200;2023-01-08T11:15:29;97095.19;;;21.63;42.26
50057;BME280;36875;49.468;11.200;2023-01-08T11:18:03;97098.28;;;21.73;42.24
50057;BME280;36875;49.468;11.200;2023-01-08T11:20:31;97113.00;;;21.81;42.48
50057;BME280;36875;49.468;11.200;2023-01-08T11:23:04;97108.13;;;21.74;42.42
50057;BME280;36875;49.468;11.200;2023-01-08T11:25:30;97106.75;;;21.93;42.25
50057;BME280;36875;49.468;11.200;2023-01-08T11:27:58;97063.47;;;21.86;41.91
50057;BME280;36875;49.468;11.200;2023-01-08T11:30:26;97094.06;;;22.01;41.98
50057;BME280;36875;49.468;11.200;2023-01-08T11:33:01;97098.50;;;22.05;41.96
50057;BME280;36875;49.468;11.200;2023-01-08T11:35:32;97091.50;;;22.20;41.64
50057;BME280;36875;49.468;11.200;2023-01-08T11:38:00;97100.34;;;22.26;41.44
50057;BME280;36875;49.468;11.200;2023-01-08T11:40:36;97092.56;;;22.16;41.74
50057;BME280;36875;49.468;11.200;2023-01-08T11:43:26;97089.13;;;22.31;41.48
50057;BME280;36875;49.468;11.200;2023-01-08T11:46:04;97097.44;;;22.35;41.44
50057;BME280;36875;49.468;11.200;2023-01-08T11:48:46;97096.09;;;22.41;41.52
50057;BME280;36875;49.468;11.200;2023-01-08T11:51:35;97094.78;;;22.50;41.05
50057;BME280;36875;49.468;11.200;2023-01-08T11:54:17;97086.22;;;22.52;41.13
50057;BME280;36875;49.468;11.200;2023-01-08T11:57:03;97075.03;;;22.45;41.21
50057;BME280;36875;49.468;11.200;2023-01-08T11:59:45;97076.38;;;22.51;41.27
50057;BME280;36875;49.468;11.200;2023-01-08T12:02:19;97072.28;;;22.57;41.24
50057;BME280;36875;49.468;11.200;2023-01-08T12:05:01;97066.16;;;22.64;40.72
50057;BME280;36875;49.468;11.200;2023-01-08T12:07:35;97060.47;;;22.57;40.96
50057;BME280;36875;49.468;11.200;2023-01-08T12:10:13;97055.19;;;22.64;40.95
50057;BME280;36875;49.468;11.200;2023-01-08T12:12:48;97050.72;;;22.71;40.81
50057;BME280;36875;49.468;11.200;2023-01-08T12:15:23;97049.72;;;22.64;40.65
50057;BME280;36875;49.468;11.200;2023-01-08T12:18:08;97043.25;;;22.56;40.89
50057;BME280;36875;49.468;11.200;2023-01-08T12:20:41;97038.19;;;22.58;40.80
50057;BME280;36875;49.468;11.200;2023-01-08T12:23:16;97030.66;;;22.55;41.17
50057;BME280;36875;49.468;11.200;2023-01-08T12:26:10;97022.34;;;22.51;41.19
50057;BME280;36875;49.468;11.200;2023-01-08T12:28:54;97029.88;;;22.55;41.05
50057;BME280;36875;49.468;11.200;2023-01-08T12:34:32;97029.34;;;22.49;41.55
50057;BME280;36875;49.468;11.200;2023-01-08T12:37:06;97020.66;;;22.47;41.75
50057;BME280;36875;49.468;11.200;2023-01-08T12:39:44;97016.47;;;22.37;42.21
50057;BME280;36875;49.468;11.200;2023-01-08T12:42:13;97013.47;;;22.42;41.95
50057;BME280;36875;49.468;11.200;2023-01-08T12:44:41;97004.56;;;22.45;42.32
50057;BME280;36875;49.468;11.200;2023-01-08T12:47:12;97001.66;;;22.54;42.03
50057;BME280;36875;49.468;11.200;2023-01-08T12:49:46;97004.31;;;22.50;42.35
50057;BME280;36875;49.468;11.200;2023-01-08T12:52:15;97000.44;;;22.67;42.00
50057;BME280;36875;49.468;11.200;2023-01-08T12:54:47;96991.47;;;22.83;41.84
50057;BME280;36875;49.468;11.200;2023-01-08T12:57:23;96981.19;;;22.80;41.63
50057;BME280;36875;49.468;11.200;2023-01-08T12:59:57;96986.69;;;22.96;41.66